Terminal Aerodrome Forecast
Issued by NWS Cleveland, OH

Home | Current Version | Previous Version | Text Only | Print | Product List | Glossary Off
Versions: 1 2 3 4 5 6 7 8 9 10 11 12 13 14 15 16 17 18 19 20 21 22 23 24 25 26

000
FTUS41 KCLE 151139
TAFCLE
TAF
KCLE 151139Z 1512/1618 15008KT P6SM BKN035 OVC090
     FM151500 15008KT 5SM -SN OVC035
     FM151700 16010KT 6SM -SN OVC035
     FM151900 16010KT 2SM -SN OVC025
      TEMPO 1520/1523 1SM -SN
     FM160200 19008KT 3SM -SN OVC015
     FM160400 20007KT P6SM OVC015
     FM160600 23008KT P6SM BKN015=

USA.gov is the U.S. government's official web portal to all federal, state and local government web resources and services.